createdAt,value
2023-05-10T00:07:12.122Z,5.15
2023-05-10T00:17:13.628Z,5.37
2023-05-10T00:27:14.963Z,5.70
2023-05-10T00:37:16.480Z,6.20
2023-05-10T00:47:18.330Z,6.00
2023-05-10T00:57:20.383Z,7.37
2023-05-10T01:07:21.765Z,6.53
2023-05-10T01:17:23.773Z,6.47
2023-05-10T01:27:34.274Z,7.33
2023-05-10T01:37:47.774Z,6.97
2023-05-10T01:48:12.063Z,7.55
2023-05-10T01:58:22.022Z,7.70
2023-05-10T02:08:24.863Z,7.00
2023-05-10T02:18:28.626Z,7.45
2023-05-10T02:28:31.113Z,8.17
2023-05-10T02:38:35.650Z,8.30
2023-05-10T02:48:37.117Z,8.80
2023-05-10T02:58:38.579Z,8.40
2023-05-10T03:08:40.390Z,9.70
2023-05-10T03:18:51.810Z,9.93
2023-05-10T03:28:54.259Z,10.15
2023-05-10T03:38:55.916Z,11.90
2023-05-10T03:48:57.258Z,12.63
2023-05-10T03:58:58.784Z,11.48
2023-05-10T04:09:01.375Z,12.10
2023-05-10T04:19:03.696Z,12.70
2023-05-10T04:29:05.066Z,13.63
2023-05-10T04:39:06.432Z,12.82
2023-05-10T04:49:07.924Z,14.07
2023-05-10T04:59:09.326Z,12.93
2023-05-10T05:09:11.226Z,12.60
2023-05-10T05:19:12.705Z,13.87
2023-05-10T05:29:14.036Z,12.83
2023-05-10T05:39:15.484Z,14.35
2023-05-10T05:49:16.869Z,15.10
2023-05-10T05:59:18.340Z,13.00
2023-05-10T06:09:19.819Z,15.27
2023-05-10T06:19:21.345Z,13.65
2023-05-10T06:29:22.815Z,14.43
2023-05-10T06:39:24.299Z,15.70
2023-05-10T06:49:25.779Z,16.67
2023-05-10T06:59:27.297Z,17.80
2023-05-10T07:09:29.158Z,15.83
2023-05-10T07:19:30.715Z,16.10
2023-05-10T07:29:32.134Z,15.93
2023-05-10T07:39:33.670Z,15.93
2023-05-10T07:49:35.237Z,14.65
2023-05-10T07:59:36.703Z,14.27
2023-05-10T08:09:38.209Z,11.20
2023-05-10T08:19:39.679Z,12.47
2023-05-10T08:29:49.375Z,12.00
2023-05-10T08:39:51.218Z,14.07
2023-05-10T08:49:53.477Z,11.67
2023-05-10T08:59:55.051Z,11.80
2023-05-10T09:09:57.378Z,10.23
2023-05-10T09:20:00.329Z,10.57
2023-05-10T09:30:02.262Z,11.45
2023-05-10T09:40:08.450Z,9.95
2023-05-10T09:50:10.629Z,8.93
2023-05-10T10:00:18.834Z,9.80
2023-05-10T10:10:20.740Z,10.32
2023-05-10T10:20:23.693Z,12.23
2023-05-10T10:30:30.868Z,8.67
2023-05-10T10:40:35.081Z,10.18
2023-05-10T10:50:45.696Z,9.00
2023-05-10T11:00:47.090Z,8.40
2023-05-10T11:11:00.446Z,9.27
2023-05-10T11:21:06.289Z,8.85
2023-05-10T11:31:08.048Z,11.00
2023-05-10T11:41:11.274Z,10.00
2023-05-10T11:51:12.681Z,10.82
2023-05-10T12:01:14.304Z,10.13
2023-05-10T12:11:18.732Z,9.10
2023-05-10T12:21:21.880Z,7.00
2023-05-10T12:31:23.506Z,6.10
2023-05-10T12:41:26.640Z,7.57
2023-05-10T12:51:28.034Z,7.07
2023-05-10T13:01:29.503Z,5.72
2023-05-10T13:11:30.930Z,6.10
2023-05-10T13:21:32.269Z,5.10
2023-05-10T13:31:34.415Z,5.05
2023-05-10T13:41:35.943Z,4.87
2023-05-10T13:51:37.435Z,5.33
2023-05-10T14:01:39.094Z,4.40
2023-05-10T14:11:44.037Z,4.20
2023-05-10T14:21:45.430Z,5.23
2023-05-10T14:31:46.964Z,4.88
2023-05-10T14:41:48.495Z,4.72
2023-05-10T14:51:49.987Z,5.30
2023-05-10T15:01:51.536Z,5.97
2023-05-10T15:11:54.162Z,6.35
2023-05-10T15:21:56.252Z,7.27
2023-05-10T15:31:58.942Z,8.10
2023-05-10T15:42:00.330Z,7.68
2023-05-10T15:52:01.902Z,5.10
2023-05-10T16:02:04.309Z,3.23
2023-05-10T16:12:05.923Z,3.25
2023-05-10T16:22:07.640Z,2.85
2023-05-10T16:32:09.094Z,4.47
2023-05-10T16:42:10.645Z,5.97
2023-05-10T16:52:12.458Z,6.10
2023-05-10T17:02:14.927Z,4.97
2023-05-10T17:12:16.391Z,5.77
2023-05-10T17:22:18.025Z,4.32
2023-05-10T17:32:19.381Z,5.30
2023-05-10T17:42:20.980Z,6.13
2023-05-10T17:52:22.721Z,5.82
2023-05-10T18:02:24.292Z,6.75
2023-05-10T18:12:25.755Z,6.93
2023-05-10T18:22:27.163Z,7.67
2023-05-10T18:32:28.567Z,6.60
2023-05-10T18:42:30.235Z,6.10
2023-05-10T18:52:31.652Z,6.30
2023-05-10T19:02:33.100Z,7.43
2023-05-10T19:12:35.054Z,6.63
2023-05-10T19:22:54.300Z,7.37
2023-05-10T19:32:58.129Z,8.32
2023-05-10T19:43:00.518Z,8.52
2023-05-10T19:53:02.084Z,8.53
2023-05-10T20:13:06.958Z,9.15
2023-05-10T20:23:08.360Z,9.07
2023-05-10T20:33:09.797Z,9.73
2023-05-10T20:43:11.378Z,10.77
2023-05-10T20:53:14.618Z,9.83
2023-05-10T21:03:16.267Z,9.60
2023-05-10T21:13:17.710Z,11.18
2023-05-10T21:23:19.217Z,12.25
2023-05-10T21:33:20.696Z,12.17
2023-05-10T21:43:22.084Z,11.97
2023-05-10T21:53:23.452Z,12.50
2023-05-10T22:03:24.920Z,12.93
2023-05-10T22:13:26.615Z,14.37
2023-05-10T22:23:27.965Z,15.88
2023-05-10T22:33:29.342Z,15.53
2023-05-10T22:43:30.726Z,15.97
2023-05-10T22:53:32.098Z,15.13
2023-05-10T23:03:33.504Z,15.88
2023-05-10T23:13:34.923Z,15.97
2023-05-10T23:23:37.193Z,15.57
2023-05-10T23:33:38.587Z,15.63
2023-05-10T23:43:40.028Z,15.30
2023-05-10T23:53:41.609Z,15.00
